Time;durP1;ratioP1;P1;durP2;ratioP2;P2;SDS_P1;SDS_P2;PMS_P1;PMS_P2;Temp;Humidity;BMP_temperature;BMP_pressure;BME280_temperature;BME280_humidity;BME280_pressure;Samples;Min_cycle;Max_cycle;Signal;HPM_P1;HPM_P2
2022/06/14 00:01:56;;;;;;;4.05;1.20;;;;;;;13.40;nan;102022.81;4999330;28;20030;-45
2022/06/14 00:04:21;;;;;;;3.20;1.23;;;;;;;13.38;nan;102012.28;5000951;28;20030;-45
2022/06/14 00:06:47;;;;;;;3.40;1.00;;;;;;;13.38;nan;102014.16;5000000;28;20026;-46
2022/06/14 00:09:12;;;;;;;2.30;1.20;;;;;;;13.39;nan;102018.47;5000080;28;20029;-46
2022/06/14 00:11:39;;;;;;;1.75;0.85;;;;;;;13.34;nan;102021.88;5000474;28;20109;-47
2022/06/14 00:14:08;;;;;;;1.10;0.95;;;;;;;13.29;nan;102024.47;4998725;28;20091;-45
2022/06/14 00:16:35;;;;;;;5.13;1.30;;;;;;;13.26;nan;102019.53;5001637;28;20226;-45
2022/06/14 00:19:04;;;;;;;2.92;1.30;;;;;;;13.10;nan;102023.69;4998991;28;20034;-46
2022/06/14 00:21:30;;;;;;;3.33;1.13;;;;;;;13.10;nan;102023.69;5004340;28;20104;-45
2022/06/14 00:23:56;;;;;;;4.15;1.20;;;;;;;13.06;nan;102024.41;4998559;28;20782;-45
2022/06/14 00:26:22;;;;;;;1.88;1.02;;;;;;;12.99;nan;102024.53;4993178;28;20176;-45
2022/06/14 00:28:49;;;;;;;2.83;1.55;;;;;;;12.97;nan;102030.16;5000376;28;20037;-45
2022/06/14 00:31:21;;;;;;;7.50;1.30;;;;;;;12.90;nan;102037.50;4999755;28;20061;-45
2022/06/14 00:33:46;;;;;;;2.40;1.05;;;;;;;12.88;nan;102044.97;4998388;28;20297;-46
2022/06/14 00:36:30;;;;;;;3.72;1.10;;;;;;;12.83;nan;102041.34;5000549;28;20029;-46
2022/06/14 00:38:59;;;;;;;5.22;1.30;;;;;;;12.80;nan;102041.81;4999974;28;20030;-46
2022/06/14 00:41:43;;;;;;;4.38;1.38;;;;;;;12.84;nan;102043.81;4995363;28;20037;-46
2022/06/14 00:44:14;;;;;;;2.92;1.67;;;;;;;12.83;nan;102047.56;4990426;28;20056;-47
2022/06/14 00:47:09;;;;;;;3.65;1.85;;;;;;;12.75;nan;102053.28;4998544;28;20113;-45
2022/06/14 00:49:49;;;;;;;3.35;1.45;;;;;;;12.72;nan;102053.72;4992828;28;20025;-46
2022/06/14 00:52:26;;;;;;;3.50;1.50;;;;;;;12.70;nan;102048.56;4995646;28;20057;-46
2022/06/14 00:55:07;;;;;;;5.30;1.55;;;;;;;12.62;nan;102056.97;4993615;28;20105;-46
2022/06/14 00:57:36;;;;;;;2.85;1.17;;;;;;;12.67;nan;102048.22;4996448;28;20031;-46
2022/06/14 01:00:11;;;;;;;4.40;1.48;;;;;;;12.65;nan;102055.69;4996814;28;20040;-46
2022/06/14 01:02:58;;;;;;;;;;;;;;;12.52;nan;102050.50;5000788;28;20029;-46
2022/06/14 01:06:05;;;;;;;6.13;1.67;;;;;;;12.54;nan;102051.09;5004413;28;19992;-46
2022/06/14 01:08:22;;;;;;;4.13;1.50;;;;;;;12.53;nan;102042.22;5000367;28;20030;-46
2022/06/14 01:10:48;;;;;;;5.32;1.30;;;;;;;12.53;nan;102038.69;5002242;28;20038;-46
2022/06/14 01:13:16;;;;;;;5.75;2.22;;;;;;;12.53;nan;102049.47;4996535;28;20068;-46
2022/06/14 01:15:43;;;;;;;4.07;1.55;;;;;;;12.48;nan;102044.78;5003629;28;20121;-47
2022/06/14 01:18:14;;;;;;;6.43;1.50;;;;;;;12.44;nan;102046.28;5000456;28;20426;-46
2022/06/14 01:20:40;;;;;;;4.35;1.45;;;;;;;12.48;nan;102046.63;4997312;28;20030;-46
2022/06/14 01:23:08;;;;;;;5.88;1.73;;;;;;;12.40;nan;102055.84;5000499;28;20029;-46
2022/06/14 01:25:39;;;;;;;3.05;1.40;;;;;;;12.34;nan;102054.88;4998876;28;20042;-48
2022/06/14 01:28:06;;;;;;;4.35;1.52;;;;;;;12.36;nan;102055.47;5000192;28;20026;-46
2022/06/14 01:30:36;;;;;;;4.85;2.08;;;;;;;12.32;nan;102054.28;4995545;28;20282;-47
2022/06/14 01:33:11;;;;;;;6.03;2.03;;;;;;;12.27;nan;102054.16;5001800;28;20382;-47
2022/06/14 01:35:40;;;;;;;3.35;1.67;;;;;;;12.33;nan;102058.63;5000704;28;20026;-46
2022/06/14 01:38:11;;;;;;;6.22;1.40;;;;;;;12.29;nan;102054.75;5002280;28;20022;-46
2022/06/14 01:41:06;;;;;;;5.35;1.80;;;;;;;12.28;nan;102049.63;5000038;28;20125;-47
2022/06/14 01:43:40;;;;;;;4.50;1.93;;;;;;;12.17;nan;102050.38;5000539;28;20118;-48
2022/06/14 01:46:23;;;;;;;4.50;1.58;;;;;;;12.11;nan;102060.16;5000226;28;20022;-46
2022/06/14 01:52:02;;;;;;;5.57;1.70;;;;;;;12.03;nan;102049.75;5004101;28;20033;-46
2022/06/14 01:54:31;;;;;;;4.70;1.67;;;;;;;12.07;nan;102059.81;4997715;28;20043;-47
2022/06/14 01:57:02;;;;;;;4.72;1.65;;;;;;;12.03;nan;102058.63;5000610;28;20488;-48
2022/06/14 01:59:46;;;;;;;5.35;1.98;;;;;;;11.98;nan;102063.00;4999994;28;20518;-47
2022/06/14 02:02:19;;;;;;;6.60;2.25;;;;;;;11.98;nan;102065.69;4998182;28;20049;-47
2022/06/14 02:05:19;;;;;;;6.30;2.15;;;;;;;11.92;nan;102074.66;4997376;28;20193;-47
2022/06/14 02:08:15;;;;;;;7.93;2.45;;;;;;;11.90;nan;102074.06;4992737;28;20032;-48
2022/06/14 02:10:46;;;;;;;4.20;2.10;;;;;;;11.82;nan;102066.28;4993749;28;20023;-47
2022/06/14 02:13:26;;;;;;;7.50;2.30;;;;;;;11.82;nan;102067.13;5001107;28;20069;-47
2022/06/14 02:16:13;;;;;;;6.47;2.25;;;;;;;11.78;nan;102076.63;4996769;28;20369;-47
2022/06/14 02:19:20;;;;;;;8.07;2.20;;;;;;;11.72;nan;102069.47;4998938;28;20391;-47
2022/06/14 02:21:50;;;;;;;4.50;2.20;;;;;;;11.77;nan;102075.81;4952910;28;20510;-46
2022/06/14 02:24:17;;;;;;;4.47;2.10;;;;;;;11.73;nan;102077.31;4993640;28;20488;-47
2022/06/14 02:26:50;;;;;;;4.80;1.95;;;;;;;11.70;nan;102075.06;5004991;28;20022;-48
2022/06/14 02:29:24;;;;;;;4.90;1.75;;;;;;;11.71;nan;102075.91;4999719;28;20029;-47
2022/06/14 02:32:07;;;;;;;5.82;1.80;;;;;;;11.73;nan;102066.56;5001390;28;22187;-47
2022/06/14 02:34:42;;;;;;;4.35;1.73;;;;;;;11.76;nan;102071.50;4999501;28;20065;-48
2022/06/14 02:37:09;;;;;;;7.35;2.00;;;;;;;11.72;nan;102067.63;4997231;28;20029;-47
2022/06/14 02:39:52;;;;;;;6.28;2.00;;;;;;;11.65;nan;102088.31;5000561;28;20048;-50
2022/06/14 02:42:28;;;;;;;5.13;1.90;;;;;;;11.63;nan;102084.22;5001766;28;20041;-49
2022/06/14 02:45:04;;;;;;;5.55;2.33;;;;;;;11.60;nan;102084.69;4994308;28;20026;-47
2022/06/14 02:47:41;;;;;;;6.05;1.70;;;;;;;11.64;nan;102089.38;4997288;28;20150;-48
2022/06/14 02:50:20;;;;;;;5.93;2.47;;;;;;;11.67;nan;102088.09;5001195;28;20487;-49
2022/06/14 02:53:41;;;;;;;6.10;1.80;;;;;;;11.61;nan;102089.00;5004825;28;20076;-46
2022/06/14 02:56:17;;;;;;;3.15;1.90;;;;;;;11.60;nan;102090.03;4959083;28;20039;-46
2022/06/14 02:58:55;;;;;;;8.63;2.00;;;;;;;11.62;nan;102098.69;4996789;28;20038;-47
2022/06/14 03:01:31;;;;;;;3.83;2.13;;;;;;;11.57;nan;102094.00;5004717;28;20041;-47
2022/06/14 03:04:07;;;;;;;8.43;2.55;;;;;;;11.55;nan;102095.25;5003967;28;20426;-47
2022/06/14 03:06:50;;;;;;;7.85;2.45;;;;;;;11.54;nan;102091.75;5003918;28;20018;-47
2022/06/14 03:09:20;;;;;;;6.20;2.30;;;;;;;11.52;nan;102087.66;5005043;28;20116;-50
2022/06/14 03:12:04;;;;;;;4.75;2.17;;;;;;;11.50;nan;102079.84;4996912;28;20034;-47
2022/06/14 03:14:56;;;;;;;5.22;1.70;;;;;;;11.50;nan;102082.50;5003729;28;20379;-48
2022/06/14 03:17:46;;;;;;;8.73;2.00;;;;;;;11.45;nan;102077.78;5002283;28;20049;-48
2022/06/14 03:20:41;;;;;;;5.72;2.28;;;;;;;11.41;nan;102083.84;5007637;28;20036;-48
2022/06/14 03:23:18;;;;;;;7.60;2.07;;;;;;;11.46;nan;102089.34;5003294;28;20110;-47
2022/06/14 03:26:03;;;;;;;6.90;1.98;;;;;;;11.53;nan;102083.94;5004478;28;20022;-48
2022/06/14 03:28:48;;;;;;;4.35;1.80;;;;;;;11.53;nan;102092.81;5003626;28;20033;-47
2022/06/14 03:31:32;;;;;;;6.88;2.20;;;;;;;11.62;nan;102082.59;5008203;28;20030;-47
2022/06/14 03:34:27;;;;;;;4.38;2.30;;;;;;;11.55;nan;102088.03;5001042;28;20025;-48
2022/06/14 03:36:54;;;;;;;7.03;2.35;;;;;;;11.62;nan;102094.16;4998955;28;20030;-47
2022/06/14 03:39:28;;;;;;;4.82;1.70;;;;;;;11.67;nan;102102.38;5004581;28;20041;-47
2022/06/14 03:41:54;;;;;;;10.27;2.38;;;;;;;11.70;nan;102098.41;4999619;28;20119;-46
2022/06/14 03:44:22;;;;;;;6.15;2.05;;;;;;;11.73;nan;102098.78;5002046;28;20079;-46
2022/06/14 03:47:09;;;;;;;9.48;2.00;;;;;;;11.79;nan;102099.78;5000428;28;20041;-47
2022/06/14 03:49:36;;;;;;;7.13;2.30;;;;;;;11.79;nan;102094.41;5000936;28;20396;-47
2022/06/14 03:52:46;;;;;;;6.95;1.75;;;;;;;11.81;nan;102105.75;5003967;28;20034;-46
2022/06/14 03:55:22;;;;;;;6.80;1.70;;;;;;;11.95;nan;102103.75;4996350;28;20029;-46
2022/06/14 03:58:00;;;;;;;6.43;1.85;;;;;;;11.93;nan;102101.28;5003501;28;20124;-46
2022/06/14 04:00:52;;;;;;;6.32;2.17;;;;;;;12.00;nan;102095.81;4999459;28;20076;-47
2022/06/14 04:03:44;;;;;;;4.95;2.00;;;;;;;12.04;nan;102097.88;5000291;28;20091;-46
2022/06/14 04:06:28;;;;;;;7.28;2.33;;;;;;;12.12;nan;102099.41;5005257;28;20101;-48
2022/06/14 04:09:12;;;;;;;6.30;2.13;;;;;;;12.14;nan;102104.56;5003171;28;20500;-48
2022/06/14 04:11:47;;;;;;;7.28;2.50;;;;;;;12.22;nan;102105.09;5000693;28;20022;-48
2022/06/14 04:15:02;;;;;;;3.38;1.90;;;;;;;12.19;nan;102102.00;4998774;28;20044;-47
2022/06/14 04:17:36;;;;;;;4.65;1.75;;;;;;;12.26;nan;102106.28;5003230;28;20052;-45
2022/06/14 04:20:12;;;;;;;7.57;2.80;;;;;;;12.33;nan;102111.56;4997034;28;20391;-46
2022/06/14 04:22:43;;;;;;;6.40;1.98;;;;;;;12.34;nan;102107.81;5002175;28;20116;-46
2022/06/14 04:25:24;;;;;;;7.00;1.77;;;;;;;12.35;nan;102109.47;4996917;28;20125;-47
2022/06/14 04:27:52;;;;;;;5.55;2.22;;;;;;;12.32;nan;102105.34;5001638;28;20026;-46
2022/06/14 04:30:43;;;;;;;8.02;2.25;;;;;;;12.38;nan;102112.50;4999581;28;20117;-47
2022/06/14 04:33:13;;;;;;;5.63;2.17;;;;;;;12.42;nan;102109.38;5001062;28;20498;-46
2022/06/14 04:35:48;;;;;;;4.50;1.90;;;;;;;12.45;nan;102111.63;5006396;28;20080;-46
2022/06/14 04:38:42;;;;;;;6.45;2.10;;;;;;;12.42;nan;102104.00;4998831;28;20030;-46
2022/06/14 04:41:18;;;;;;;9.73;2.42;;;;;;;12.49;nan;102110.09;5003979;28;20037;-47
2022/06/14 04:44:08;;;;;;;7.07;2.10;;;;;;;12.50;nan;102114.44;4998058;28;20030;-49
2022/06/14 04:46:40;;;;;;;7.45;2.10;;;;;;;12.58;nan;102116.81;5002003;28;20411;-48
2022/06/14 04:49:14;;;;;;;7.22;2.17;;;;;;;12.60;nan;102117.41;5007757;28;20025;-48
2022/06/14 04:51:47;;;;;;;5.68;2.35;;;;;;;12.62;nan;102115.31;5003923;28;20033;-48
2022/06/14 04:54:33;;;;;;;12.05;2.40;;;;;;;12.66;nan;102124.56;5006898;28;20029;-46
2022/06/14 04:57:06;;;;;;;4.88;1.90;;;;;;;12.67;nan;102120.81;5005103;28;20029;-46
2022/06/14 04:59:45;;;;;;;4.38;1.98;;;;;;;12.75;nan;102120.50;5002755;28;20506;-48
2022/06/14 05:02:22;;;;;;;10.18;2.25;;;;;;;12.87;nan;102113.28;5010255;28;20025;-47
2022/06/14 05:04:55;;;;;;;8.07;1.60;;;;;;;12.95;nan;102115.66;4999220;28;20076;-46
2022/06/14 05:07:28;;;;;;;6.35;2.00;;;;;;;12.98;nan;102119.75;5003365;28;20684;-47
2022/06/14 05:09:59;;;;;;;9.23;2.13;;;;;;;12.98;nan;102119.75;5004669;28;20041;-45
2022/06/14 05:12:46;;;;;;;6.93;1.95;;;;;;;12.99;nan;102116.81;5017264;22;20046;-46
2022/06/14 05:15:24;;;;;;;7.68;1.88;;;;;;;13.04;nan;102124.19;5013871;28;20050;-46
2022/06/14 05:17:55;;;;;;;8.20;2.00;;;;;;;13.04;nan;102120.69;5011652;28;20402;-46
2022/06/14 05:20:50;;;;;;;10.35;1.98;;;;;;;13.08;nan;102125.38;5014077;28;20033;-48
2022/06/14 05:23:38;;;;;;;7.85;1.85;;;;;;;13.14;nan;102124.47;5003237;28;20037;-46
2022/06/14 05:26:21;;;;;;;7.20;2.20;;;;;;;13.18;nan;102132.91;5023407;23;20692;-41
2022/06/14 05:29:05;;;;;;;6.72;2.00;;;;;;;13.24;nan;102129.28;5012033;28;20048;-42
2022/06/14 05:31:42;;;;;;;8.45;2.10;;;;;;;13.40;nan;102131.31;5016542;28;20040;-42
2022/06/14 05:34:30;;;;;;;8.18;1.90;;;;;;;13.41;nan;102132.94;5011516;28;20119;-41
2022/06/14 05:37:10;;;;;;;8.40;1.90;;;;;;;13.40;nan;102139.38;5018247;28;20022;-42
2022/06/14 05:39:49;;;;;;;6.68;1.77;;;;;;;13.47;nan;102148.19;5012704;28;20084;-42
2022/06/14 05:42:20;;;;;;;11.50;2.20;;;;;;;13.49;nan;102138.00;5013748;28;20033;-41
2022/06/14 05:44:49;;;;;;;7.47;2.13;;;;;;;13.50;nan;102131.56;5011633;28;20115;-41
2022/06/14 05:47:26;;;;;;;7.40;2.30;;;;;;;13.48;nan;102136.34;5014175;28;20022;-41
2022/06/14 05:49:58;;;;;;;9.27;2.25;;;;;;;13.57;nan;102134.13;5012259;28;20091;-42
2022/06/14 05:52:40;;;;;;;7.15;1.80;;;;;;;13.59;nan;102135.53;5014127;28;20043;-42
2022/06/14 05:55:13;;;;;;;7.85;2.03;;;;;;;13.49;nan;102138.00;5014986;28;20473;-41
2022/06/14 05:57:47;;;;;;;7.85;2.17;;;;;;;13.61;nan;102128.03;5012770;28;20049;-43
2022/06/14 06:00:37;;;;;;;3.92;1.70;;;;;;;13.65;nan;102130.28;5013362;28;20029;-42
2022/06/14 06:03:17;;;;;;;7.07;1.70;;;;;;;13.63;nan;102135.88;5015397;28;20032;-42
2022/06/14 06:05:52;;;;;;;11.63;2.90;;;;;;;13.79;nan;102137.84;5012770;28;20037;-43
2022/06/14 06:08:36;;;;;;;6.22;1.90;;;;;;;13.96;nan;102140.66;5011771;28;20026;-41
2022/06/14 06:11:19;;;;;;;8.23;1.87;;;;;;;14.11;nan;102138.28;5015772;28;20613;-43
2022/06/14 06:14:19;;;;;;;10.82;2.00;;;;;;;14.12;nan;102141.78;5013178;28;20061;-42
2022/06/14 06:17:03;;;;;;;5.00;1.50;;;;;;;14.01;nan;102140.78;5011292;28;20049;-42
2022/06/14 06:19:38;;;;;;;9.10;2.03;;;;;;;14.08;nan;102136.06;5010951;28;20034;-41
2022/06/14 06:22:18;;;;;;;8.32;2.00;;;;;;;14.11;nan;102135.59;5016118;28;20033;-42
2022/06/14 06:25:00;;;;;;;7.60;1.90;;;;;;;14.24;nan;102139.09;5011051;28;20387;-42
2022/06/14 06:27:40;;;;;;;7.07;2.00;;;;;;;14.35;nan;102141.72;5015179;28;20022;-42
2022/06/14 06:30:14;;;;;;;7.68;1.73;;;;;;;14.27;nan;102144.00;5008570;28;20041;-42
2022/06/14 06:32:41;;;;;;;5.55;1.45;;;;;;;14.33;nan;102140.34;5013117;28;20179;-43
2022/06/14 06:35:07;;;;;;;7.65;2.13;;;;;;;14.35;nan;102154.38;5012171;28;20034;-42
2022/06/14 06:37:43;;;;;;;5.70;1.60;;;;;;;14.38;nan;102140.47;5012459;28;20021;-42
2022/06/14 06:40:23;;;;;;;6.65;1.83;;;;;;;14.44;nan;102145.72;5010380;28;20034;-41
2022/06/14 06:42:58;;;;;;;5.97;1.60;;;;;;;14.54;nan;102141.56;5012368;28;20025;-41
2022/06/14 06:45:29;;;;;;;12.02;2.55;;;;;;;14.58;nan;102148.97;5015534;28;20040;-42
2022/06/14 06:48:02;;;;;;;6.32;1.60;;;;;;;14.70;nan;102143.50;5017724;28;20040;-44
2022/06/14 06:50:37;;;;;;;5.70;1.60;;;;;;;14.74;nan;102150.91;5012783;28;20071;-41
2022/06/14 06:53:22;;;;;;;8.90;2.22;;;;;;;14.70;nan;102157.00;5015717;28;20060;-42
2022/06/14 06:55:58;;;;;;;6.90;1.98;;;;;;;14.87;nan;102154.34;5011153;28;20030;-43
2022/06/14 06:58:37;;;;;;;6.95;1.75;;;;;;;14.94;nan;102165.81;5015022;28;20061;-41
2022/06/14 07:01:34;;;;;;;8.40;1.95;;;;;;;15.04;nan;102171.38;5017780;28;20025;-43
2022/06/14 07:04:17;;;;;;;6.20;1.80;;;;;;;15.12;nan;102179.09;5006578;28;20053;-41
2022/06/14 07:06:46;;;;;;;5.15;1.77;;;;;;;15.07;nan;102182.50;5014887;28;20021;-45
2022/06/14 07:09:16;;;;;;;4.43;1.30;;;;;;;15.20;nan;102176.00;5017549;28;20116;-42
2022/06/14 07:11:55;;;;;;;9.27;1.95;;;;;;;15.05;nan;102178.41;5012463;28;20044;-42
2022/06/14 07:14:23;;;;;;;9.45;1.58;;;;;;;14.97;nan;102184.22;5010974;28;20369;-43
2022/06/14 07:17:14;;;;;;;7.63;2.17;;;;;;;15.04;nan;102188.41;5012820;28;20028;-41
2022/06/14 07:19:49;;;;;;;8.15;3.13;;;;;;;15.14;nan;102181.56;5013393;28;20379;-42
2022/06/14 07:22:17;;;;;;;6.95;1.92;;;;;;;15.17;nan;102184.59;5011570;28;20207;-42
2022/06/14 07:25:03;;;;;;;6.93;1.80;;;;;;;15.18;nan;102183.53;5010219;28;20045;-41
2022/06/14 07:27:37;;;;;;;7.30;1.90;;;;;;;15.12;nan;102184.50;5012997;28;20394;-42
2022/06/14 07:30:19;;;;;;;6.90;1.80;;;;;;;15.34;nan;102185.41;5011998;28;20033;-43
2022/06/14 07:32:50;;;;;;;6.65;2.17;;;;;;;15.55;nan;102183.84;5012562;28;20120;-42
2022/06/14 07:35:25;;;;;;;9.00;1.63;;;;;;;15.42;nan;102184.19;5011161;28;20057;-42
2022/06/14 07:38:02;;;;;;;6.88;1.60;;;;;;;15.32;nan;102186.72;5016821;28;20458;-42
2022/06/14 07:40:50;;;;;;;6.97;1.70;;;;;;;15.49;nan;102181.34;5014122;28;20544;-43
2022/06/14 07:43:42;;;;;;;7.28;1.80;;;;;;;15.55;nan;102183.84;5010105;28;20049;-41
2022/06/14 07:46:14;;;;;;;7.10;1.85;;;;;;;15.65;nan;102177.84;5017202;28;20025;-42
2022/06/14 07:49:16;;;;;;;9.00;1.52;;;;;;;15.54;nan;102176.81;5015684;28;20112;-42
2022/06/14 07:51:50;;;;;;;7.15;2.05;;;;;;;15.75;nan;102183.38;5018905;28;20041;-42
2022/06/14 07:54:21;;;;;;;7.28;1.60;;;;;;;15.89;nan;102183.84;5017134;28;20381;-42
2022/06/14 07:57:01;;;;;;;7.95;1.80;;;;;;;15.94;nan;102186.63;5018467;28;20037;-42
2022/06/14 07:59:34;;;;;;;9.65;1.60;;;;;;;15.89;nan;102168.47;5018236;28;20026;-41
2022/06/14 08:02:12;;;;;;;3.03;1.10;;;;;;;15.98;nan;102179.69;5018004;28;20029;-42
2022/06/14 08:04:45;;;;;;;7.28;1.50;;;;;;;16.00;nan;102174.84;5018218;28;20052;-42
2022/06/14 08:07:17;;;;;;;6.95;1.52;;;;;;;16.11;nan;102171.19;5013689;28;20434;-42
2022/06/14 08:10:13;;;;;;;5.65;1.23;;;;;;;16.03;nan;102174.34;5013806;28;20511;-42
2022/06/14 08:12:58;;;;;;;3.58;1.70;;;;;;;15.98;nan;102183.19;5010062;28;20052;-41
2022/06/14 08:15:27;;;;;;;;;;;;;;;15.95;nan;102186.38;5019437;28;20105;-41
2022/06/14 08:17:58;;;;;;;6.20;1.33;;;;;;;15.77;nan;102183.13;5015870;28;20028;-42
2022/06/14 08:20:39;;;;;;;4.20;1.50;;;;;;;15.69;nan;102182.50;5018928;28;20368;-42
2022/06/14 08:23:13;;;;;;;6.22;1.27;;;;;;;15.81;nan;102185.09;5014842;28;20029;-42
2022/06/14 08:25:46;;;;;;;10.25;1.73;;;;;;;15.89;nan;102186.56;5016088;28;20025;-42
2022/06/14 08:28:23;;;;;;;2.90;1.00;;;;;;;15.95;nan;102193.66;5016339;28;21322;-42
2022/06/14 08:31:14;;;;;;;5.38;1.40;;;;;;;15.95;nan;102196.38;5016016;28;20038;-42
2022/06/14 08:33:58;;;;;;;9.73;1.48;;;;;;;16.05;nan;102195.72;5014035;28;20552;-41
2022/06/14 08:36:46;;;;;;;9.00;1.80;;;;;;;15.87;nan;102186.81;5016017;28;20029;-42
2022/06/14 08:39:22;;;;;;;9.10;1.30;;;;;;;15.91;nan;102193.34;5015157;28;20037;-42
2022/06/14 08:41:57;;;;;;;4.97;1.17;;;;;;;15.96;nan;102198.81;5010628;28;20057;-42
2022/06/14 08:44:32;;;;;;;4.57;1.20;;;;;;;15.92;nan;102194.97;5012273;28;20044;-42
2022/06/14 08:47:32;;;;;;;6.70;1.75;;;;;;;16.02;nan;102188.91;5017280;28;20052;-41
2022/06/14 08:50:13;;;;;;;10.25;2.50;;;;;;;16.23;nan;102190.00;5016067;28;20029;-42
2022/06/14 08:53:03;;;;;;;4.10;1.20;;;;;;;16.41;nan;102191.59;5015951;28;20045;-41
2022/06/14 08:56:03;;;;;;;5.00;1.27;;;;;;;16.52;nan;102196.06;5014948;28;20025;-41
2022/06/14 08:58:34;;;;;;;5.15;1.92;;;;;;;16.62;nan;102194.28;5011723;28;20787;-42
2022/06/14 09:01:27;;;;;;;3.65;1.05;;;;;;;16.65;nan;102192.94;5021173;28;20626;-43
2022/06/14 09:04:20;;;;;;;5.45;1.45;;;;;;;16.70;nan;102189.53;5014258;28;20116;-42
2022/06/14 09:07:14;;;;;;;5.20;1.20;;;;;;;16.69;nan;102191.38;5014446;28;20450;-42
2022/06/14 09:10:04;;;;;;;4.25;1.23;;;;;;;16.82;nan;102192.88;5014493;28;20058;-41
2022/06/14 09:12:54;;;;;;;5.28;2.05;;;;;;;16.86;nan;102191.31;5013656;28;20132;-41
2022/06/14 09:15:42;;;;;;;4.18;1.13;;;;;;;16.73;nan;102194.44;5014868;28;20041;-42
2022/06/14 09:18:25;;;;;;;7.10;1.27;;;;;;;16.66;nan;102194.56;5016260;28;20041;-41
2022/06/14 09:20:57;;;;;;;4.80;1.35;;;;;;;16.73;nan;102189.84;5016212;28;20038;-41
2022/06/14 09:24:08;;;;;;;5.05;1.55;;;;;;;16.72;nan;102190.91;5013179;28;20410;-41
2022/06/14 09:26:42;;;;;;;5.93;1.10;;;;;;;16.76;nan;102189.31;5007283;28;20166;-41
2022/06/14 09:29:18;;;;;;;2.90;0.98;;;;;;;16.81;nan;102192.06;5018143;28;20096;-42
2022/06/14 09:32:02;;;;;;;3.00;0.88;;;;;;;16.88;nan;102202.72;5019204;28;20091;-42
2022/06/14 09:34:39;;;;;;;4.18;1.20;;;;;;;16.88;nan;102202.72;5016610;28;20533;-41
2022/06/14 09:37:17;;;;;;;3.25;1.08;;;;;;;16.90;nan;102200.56;5017002;28;20037;-42
2022/06/14 09:40:04;;;;;;;3.03;1.08;;;;;;;16.75;nan;102203.09;5014702;28;20021;-42
2022/06/14 09:42:45;;;;;;;7.50;1.27;;;;;;;16.84;nan;102198.88;5016012;28;20080;-43
2022/06/14 09:45:42;;;;;;;6.47;1.10;;;;;;;16.97;nan;102198.47;5011330;28;20034;-42
2022/06/14 09:48:40;;;;;;;4.82;1.27;;;;;;;17.01;nan;102202.28;5016224;28;20068;-42
2022/06/14 09:51:32;;;;;;;5.72;1.55;;;;;;;17.08;nan;102196.69;5001962;28;20060;-41
2022/06/14 09:54:16;;;;;;;3.20;0.85;;;;;;;17.13;nan;102210.25;5014220;28;20053;-42
2022/06/14 09:56:50;;;;;;;3.97;1.45;;;;;;;16.99;nan;102209.84;5010768;28;20049;-41
2022/06/14 09:59:35;;;;;;;6.28;1.20;;;;;;;16.77;nan;102201.78;5012239;28;20502;-41
2022/06/14 10:02:04;;;;;;;;;;;;;;;16.66;nan;102210.00;5018115;28;20394;-42
2022/06/14 10:04:57;;;;;;;3.90;1.08;;;;;;;16.71;nan;102210.94;5013883;28;19921;-42
2022/06/14 10:07:54;;;;;;;5.45;1.17;;;;;;;16.86;nan;102215.66;5016475;28;20021;-41
2022/06/14 10:10:25;;;;;;;3.42;1.15;;;;;;;16.90;nan;102211.41;5015584;28;20038;-41
2022/06/14 10:13:22;;;;;;;3.83;1.27;;;;;;;16.85;nan;102209.44;5016207;28;20053;-42
2022/06/14 10:16:11;;;;;;;5.13;1.08;;;;;;;16.88;nan;102213.53;5016265;28;20117;-42
2022/06/14 10:19:02;;;;;;;3.17;1.23;;;;;;;16.87;nan;102206.47;5016841;28;20461;-42
2022/06/14 10:21:38;;;;;;;4.43;1.17;;;;;;;16.92;nan;102204.66;5013287;28;20504;-43
2022/06/14 10:24:07;;;;;;;6.35;1.10;;;;;;;17.01;nan;102206.88;5014213;28;20156;-42
2022/06/14 10:29:46;;;;;;;6.80;1.20;;;;;;;17.09;nan;102209.16;5013461;28;20052;-41
2022/06/14 10:32:41;;;;;;;5.38;0.82;;;;;;;17.05;nan;102202.59;5015064;28;20674;-42
2022/06/14 10:35:25;;;;;;;4.18;0.98;;;;;;;17.01;nan;102202.28;5014948;28;20391;-43
2022/06/14 10:38:09;;;;;;;3.78;0.95;;;;;;;17.07;nan;102195.88;5013192;28;20065;-42
2022/06/14 10:40:59;;;;;;;4.65;1.13;;;;;;;17.17;nan;102197.84;5015165;28;20478;-42
2022/06/14 10:43:29;;;;;;;3.83;0.95;;;;;;;17.28;nan;102191.44;5013520;28;20052;-42
2022/06/14 10:46:12;;;;;;;3.70;1.13;;;;;;;17.37;nan;102189.88;5016620;28;20022;-42
2022/06/14 10:49:16;;;;;;;5.68;1.15;;;;;;;17.49;nan;102195.13;5015103;28;20045;-41
2022/06/14 10:51:58;;;;;;;4.10;1.60;;;;;;;17.61;nan;102190.38;5010662;28;20030;-42
2022/06/14 10:55:01;;;;;;;4.45;1.08;;;;;;;17.74;nan;102195.34;5013734;28;20030;-42
2022/06/14 10:57:55;;;;;;;4.35;1.52;;;;;;;17.95;nan;102188.16;5010233;28;20061;-42
2022/06/14 11:00:41;;;;;;;4.45;0.98;;;;;;;18.10;nan;102190.13;5005313;28;20121;-42
2022/06/14 11:03:32;;;;;;;4.80;2.13;;;;;;;18.14;nan;102195.88;5012987;28;20041;-43
2022/06/14 11:06:55;;;;;;;4.68;2.28;;;;;;;18.22;nan;102192.66;5014841;28;20060;-42
2022/06/14 11:09:57;;;;;;;6.95;1.48;;;;;;;18.37;nan;102188.09;4976926;28;20145;-42
2022/06/14 11:13:01;;;;;;;2.60;1.13;;;;;;;18.46;nan;102174.00;5017342;28;20155;-42
2022/06/14 11:15:26;;;;;;;4.90;2.20;;;;;;;18.49;nan;102184.34;5017797;28;20030;-42
2022/06/14 11:18:06;;;;;;;3.55;2.10;;;;;;;18.36;nan;102185.66;5016816;28;20030;-43
2022/06/14 11:20:54;;;;;;;5.43;2.25;;;;;;;18.30;nan;102182.09;5012757;28;20033;-42
2022/06/14 11:23:48;;;;;;;4.15;1.20;;;;;;;17.94;nan;102199.25;5019340;28;20132;-41
2022/06/14 11:26:14;;;;;;;2.65;1.08;;;;;;;17.87;nan;102191.38;5030625;22;20093;-46
2022/06/14 11:29:17;;;;;;;5.93;1.15;;;;;;;17.70;nan;102191.53;5015918;28;20417;-46
2022/06/14 11:32:02;;;;;;;4.78;1.27;;;;;;;17.62;nan;102197.41;4957128;28;20054;-47
2022/06/14 11:34:48;;;;;;;3.17;0.80;;;;;;;17.52;nan;102197.31;5008862;28;20598;-46
2022/06/14 11:37:27;;;;;;;8.07;1.40;;;;;;;17.38;nan;102198.81;5013682;28;20029;-46
2022/06/14 11:40:23;;;;;;;3.80;1.38;;;;;;;17.29;nan;102197.69;5015686;28;20029;-45
2022/06/14 11:43:36;;;;;;;5.63;1.10;;;;;;;17.21;nan;102202.47;5015120;28;20044;-47
2022/06/14 11:46:15;;;;;;;2.90;1.10;;;;;;;17.20;nan;102200.84;5010679;28;20127;-46
2022/06/14 11:48:49;;;;;;;5.60;1.70;;;;;;;17.30;nan;102208.25;5014216;28;20465;-46
2022/06/14 11:51:32;;;;;;;4.22;1.40;;;;;;;17.26;nan;102200.91;5013197;28;20025;-48
2022/06/14 11:54:05;;;;;;;4.85;1.13;;;;;;;17.40;nan;102199.38;5014665;28;20022;-46
2022/06/14 11:57:03;;;;;;;5.38;1.15;;;;;;;17.56;nan;102198.44;5011144;28;20116;-46
2022/06/14 11:59:59;;;;;;;4.05;1.58;;;;;;;17.83;nan;102197.59;5012226;28;20037;-46
2022/06/14 12:02:37;;;;;;;7.05;1.45;;;;;;;18.21;nan;102199.97;5012113;28;20574;-46
2022/06/14 12:05:15;;;;;;;7.03;1.60;;;;;;;18.31;nan;102183.75;5014220;28;20651;-46
2022/06/14 12:07:47;;;;;;;5.10;0.90;;;;;;;18.48;nan;102186.22;5015071;28;20018;-46
2022/06/14 12:10:47;;;;;;;4.88;1.25;;;;;;;18.44;nan;102177.00;5011019;28;20022;-47
2022/06/14 12:13:27;;;;;;;4.25;1.20;;;;;;;18.49;nan;102178.91;5010449;28;20029;-46
2022/06/14 12:16:37;;;;;;;6.07;1.30;;;;;;;18.48;nan;102177.28;5015656;28;20033;-46
2022/06/14 12:19:17;;;;;;;4.53;1.83;;;;;;;18.51;nan;102176.78;5008501;28;20038;-46
2022/06/14 12:21:51;;;;;;;7.05;1.33;;;;;;;18.53;nan;102185.47;5015091;28;20025;-45
2022/06/14 12:26:34;;;;;;;4.57;1.30;;;;;;;18.46;nan;102184.88;5009972;28;20061;-45
2022/06/14 12:27:11;;;;;;;4.75;1.60;;;;;;;18.22;nan;102185.31;5011186;28;20060;-46
2022/06/14 12:29:44;;;;;;;3.58;1.40;;;;;;;18.13;nan;102197.75;5014242;28;20033;-46
2022/06/14 12:32:21;;;;;;;6.07;1.23;;;;;;;17.94;nan;102186.53;5015492;28;20025;-47
2022/06/14 12:34:53;;;;;;;6.22;1.60;;;;;;;17.89;nan;102189.22;5013508;28;20128;-46
2022/06/14 12:37:22;;;;;;;6.88;1.20;;;;;;;17.90;nan;102190.03;5010826;28;21273;-46
2022/06/14 12:39:58;;;;;;;6.85;1.52;;;;;;;17.86;nan;102191.63;5010857;28;20042;-47
2022/06/14 12:42:31;;;;;;;5.57;1.42;;;;;;;17.80;nan;102194.31;5014009;28;20802;-45
2022/06/14 12:45:07;;;;;;;5.43;1.38;;;;;;;17.75;nan;102196.97;5012350;28;20095;-46
2022/06/14 12:48:00;;;;;;;6.22;1.50;;;;;;;17.67;nan;102189.31;5011522;28;20156;-46
2022/06/14 12:50:35;;;;;;;6.53;1.23;;;;;;;17.52;nan;102203.56;5013294;28;20034;-46